createdAt,value
2022-08-26T00:00:11.100Z,0.00
2022-08-26T00:01:11.099Z,0.00
2022-08-26T00:02:11.120Z,0.00
2022-08-26T00:03:11.110Z,0.00
2022-08-26T00:04:11.196Z,0.00
2022-08-26T00:05:11.046Z,0.00
2022-08-26T00:06:11.035Z,0.00
2022-08-26T00:07:11.031Z,0.00
2022-08-26T00:08:11.009Z,0.00
2022-08-26T00:09:11.079Z,0.00
2022-08-26T00:10:10.988Z,0.00
2022-08-26T00:11:11.010Z,0.00
2022-08-26T00:12:12.274Z,0.00
2022-08-26T00:13:10.958Z,0.00
2022-08-26T00:14:10.910Z,0.00
2022-08-26T00:15:10.947Z,0.00
2022-08-26T00:16:10.938Z,0.00
2022-08-26T00:17:10.882Z,0.00
2022-08-26T00:18:16.831Z,0.00
2022-08-26T00:19:10.865Z,0.00
2022-08-26T00:20:10.832Z,0.00
2022-08-26T00:21:10.879Z,0.00
2022-08-26T00:22:10.836Z,0.00
2022-08-26T00:23:10.806Z,0.00
2022-08-26T00:24:10.783Z,0.00
2022-08-26T00:25:10.790Z,0.00
2022-08-26T00:26:11.067Z,0.00
2022-08-26T00:27:10.839Z,0.00
2022-08-26T00:28:10.911Z,0.00
2022-08-26T00:29:10.722Z,0.00
2022-08-26T00:30:10.705Z,0.00
2022-08-26T00:31:15.683Z,0.00
2022-08-26T00:32:10.677Z,0.00
2022-08-26T00:33:10.853Z,0.00
2022-08-26T00:34:11.311Z,0.00
2022-08-26T00:35:10.675Z,0.00
2022-08-26T00:36:19.865Z,0.00
2022-08-26T00:37:13.413Z,0.00
2022-08-26T00:38:10.601Z,0.00
2022-08-26T00:39:10.656Z,0.00
2022-08-26T00:40:10.607Z,0.00
2022-08-26T00:41:10.565Z,0.00
2022-08-26T00:42:10.535Z,0.00
2022-08-26T00:43:10.592Z,0.00
2022-08-26T00:44:10.530Z,0.00
2022-08-26T00:45:11.723Z,0.00
2022-08-26T00:46:10.516Z,0.00
2022-08-26T00:47:10.500Z,0.00
2022-08-26T00:48:10.454Z,0.00
2022-08-26T00:49:11.886Z,0.00
2022-08-26T00:50:10.429Z,0.00
2022-08-26T00:51:10.465Z,0.00
2022-08-26T00:52:11.958Z,0.00
2022-08-26T00:53:10.408Z,0.00
2022-08-26T00:54:10.836Z,0.00
2022-08-26T00:55:10.410Z,0.00
2022-08-26T00:56:10.350Z,0.00
2022-08-26T00:57:16.301Z,0.00
2022-08-26T00:58:10.364Z,0.00
2022-08-26T00:59:10.332Z,0.00
2022-08-26T01:00:10.296Z,0.00
2022-08-26T01:01:10.387Z,0.00
2022-08-26T01:02:19.987Z,0.00
2022-08-26T01:03:11.536Z,0.00
2022-08-26T01:04:10.242Z,0.00
2022-08-26T01:05:10.266Z,0.00
2022-08-26T01:06:12.630Z,0.00
2022-08-26T01:07:10.214Z,0.00
2022-08-26T01:08:10.193Z,0.00
2022-08-26T01:09:10.284Z,0.00
2022-08-26T01:10:10.186Z,0.00
2022-08-26T01:11:10.197Z,0.00
2022-08-26T01:12:10.141Z,0.00
2022-08-26T01:13:10.170Z,0.00
2022-08-26T01:14:10.116Z,0.00
2022-08-26T01:15:10.143Z,0.00
2022-08-26T01:16:10.118Z,0.00
2022-08-26T01:17:10.109Z,0.00
2022-08-26T01:18:10.079Z,0.00
2022-08-26T01:19:10.059Z,0.00
2022-08-26T01:20:10.051Z,0.00
2022-08-26T01:21:10.082Z,0.00
2022-08-26T01:22:10.006Z,0.00
2022-08-26T01:23:10.010Z,0.00
2022-08-26T01:24:10.313Z,0.00
2022-08-26T01:25:09.987Z,0.00
2022-08-26T01:26:19.426Z,0.00
2022-08-26T01:27:09.999Z,0.00
2022-08-26T01:28:09.935Z,0.00
2022-08-26T01:29:09.945Z,0.00
2022-08-26T01:30:09.920Z,0.00
2022-08-26T01:31:09.985Z,0.00
2022-08-26T01:32:09.882Z,0.00
2022-08-26T01:33:10.020Z,0.00
2022-08-26T01:34:09.859Z,0.00
2022-08-26T01:35:09.867Z,0.00
2022-08-26T01:36:09.820Z,0.00
2022-08-26T01:37:13.631Z,0.00
2022-08-26T01:38:09.811Z,0.00
2022-08-26T01:39:09.874Z,0.00
2022-08-26T01:40:09.803Z,0.00
2022-08-26T01:41:16.075Z,0.00
2022-08-26T01:42:10.443Z,0.00
2022-08-26T01:43:09.758Z,0.00
2022-08-26T01:44:09.911Z,0.00
2022-08-26T01:45:09.769Z,0.00
2022-08-26T01:46:09.760Z,0.00
2022-08-26T01:47:09.692Z,0.00
2022-08-26T01:48:09.659Z,0.00
2022-08-26T01:49:09.666Z,0.00
2022-08-26T01:50:09.634Z,0.00
2022-08-26T01:51:09.698Z,0.00
2022-08-26T01:52:09.628Z,0.00
2022-08-26T01:53:10.724Z,0.00
2022-08-26T01:54:11.957Z,0.00
2022-08-26T01:55:09.582Z,0.00
2022-08-26T01:56:09.551Z,0.00
2022-08-26T01:57:09.626Z,0.00
2022-08-26T01:58:09.524Z,0.00
2022-08-26T01:59:09.550Z,0.00
2022-08-26T02:00:09.502Z,0.00
2022-08-26T02:01:09.708Z,0.00
2022-08-26T02:02:09.471Z,0.00
2022-08-26T02:03:09.507Z,0.00
2022-08-26T02:04:09.469Z,0.00
2022-08-26T02:05:09.453Z,0.00
2022-08-26T02:06:10.279Z,0.00
2022-08-26T02:07:09.431Z,0.00
2022-08-26T02:08:09.389Z,0.00
2022-08-26T02:09:09.444Z,0.00
2022-08-26T02:10:09.371Z,0.00
2022-08-26T02:11:09.395Z,0.00
2022-08-26T02:12:09.341Z,0.00
2022-08-26T02:13:09.352Z,0.00
2022-08-26T02:14:09.307Z,0.00
2022-08-26T02:15:09.347Z,0.00
2022-08-26T02:16:09.348Z,0.00
2022-08-26T02:17:09.299Z,0.00
2022-08-26T02:18:09.254Z,0.00
2022-08-26T02:19:09.275Z,0.00
2022-08-26T02:20:13.227Z,0.00
2022-08-26T02:21:09.298Z,0.00
2022-08-26T02:22:09.206Z,0.00
2022-08-26T02:23:09.201Z,0.00
2022-08-26T02:24:09.200Z,0.00
2022-08-26T02:25:09.178Z,0.00
2022-08-26T02:26:09.165Z,0.00
2022-08-26T02:27:09.214Z,0.00
2022-08-26T02:28:09.143Z,0.00
2022-08-26T02:29:09.121Z,0.00
2022-08-26T02:30:09.102Z,0.00
2022-08-26T02:31:09.182Z,0.00
2022-08-26T02:32:09.094Z,0.00
2022-08-26T02:33:09.334Z,0.00
2022-08-26T02:34:09.078Z,0.00
2022-08-26T02:35:09.031Z,0.00
2022-08-26T02:36:09.065Z,0.00
2022-08-26T02:37:09.013Z,0.00
2022-08-26T02:38:10.139Z,0.00
2022-08-26T02:39:09.031Z,0.00
2022-08-26T02:40:09.043Z,0.00
2022-08-26T02:41:08.951Z,0.00
2022-08-26T02:42:08.959Z,0.00
2022-08-26T02:43:08.937Z,0.00
2022-08-26T02:44:08.945Z,0.00
2022-08-26T02:45:08.961Z,0.00
2022-08-26T02:46:08.895Z,0.00
2022-08-26T02:47:08.903Z,0.00
2022-08-26T02:48:08.872Z,0.00
2022-08-26T02:49:08.843Z,0.00
2022-08-26T02:50:08.865Z,0.00
2022-08-26T02:51:08.897Z,0.00
2022-08-26T02:52:08.831Z,0.00
2022-08-26T02:53:09.022Z,0.00
2022-08-26T02:54:08.812Z,0.00
2022-08-26T02:55:08.765Z,0.00
2022-08-26T02:56:08.786Z,0.00
2022-08-26T02:57:08.791Z,0.00
2022-08-26T02:58:08.775Z,0.00
2022-08-26T02:59:08.737Z,0.00
2022-08-26T03:00:08.720Z,0.00
2022-08-26T03:01:08.737Z,0.00
2022-08-26T03:02:08.735Z,0.00
2022-08-26T03:03:08.872Z,0.00
2022-08-26T03:04:08.662Z,0.00
2022-08-26T03:05:08.630Z,0.00
2022-08-26T03:06:08.669Z,0.00
2022-08-26T03:07:08.605Z,0.00
2022-08-26T03:08:08.633Z,0.00
2022-08-26T03:09:08.629Z,0.00
2022-08-26T03:10:09.011Z,0.00
2022-08-26T03:11:08.552Z,0.00
2022-08-26T03:12:08.555Z,0.00
2022-08-26T03:13:08.656Z,0.00
2022-08-26T03:14:08.539Z,0.00
2022-08-26T03:15:17.430Z,0.00
2022-08-26T03:16:08.532Z,0.00
2022-08-26T03:17:08.476Z,0.00
2022-08-26T03:18:08.495Z,0.00
2022-08-26T03:19:08.464Z,0.00
2022-08-26T03:20:08.453Z,0.00
2022-08-26T03:21:08.459Z,0.00
2022-08-26T03:22:08.440Z,0.00
2022-08-26T03:23:08.577Z,0.00
2022-08-26T03:24:08.391Z,0.00
2022-08-26T03:25:08.390Z,0.00
2022-08-26T03:26:08.431Z,0.00
2022-08-26T03:27:08.374Z,0.00
2022-08-26T03:28:09.551Z,0.00
2022-08-26T03:29:08.323Z,0.00
2022-08-26T03:30:08.311Z,0.00
2022-08-26T03:31:08.360Z,0.00
2022-08-26T03:32:08.286Z,0.00
2022-08-26T03:33:08.401Z,0.00
2022-08-26T03:34:08.262Z,0.00
2022-08-26T03:35:08.236Z,0.00
2022-08-26T03:36:08.245Z,0.00
2022-08-26T03:37:08.216Z,0.00
2022-08-26T03:38:08.271Z,0.00
2022-08-26T03:39:08.193Z,0.00
2022-08-26T03:40:08.243Z,0.00
2022-08-26T03:41:08.152Z,0.00
2022-08-26T03:42:08.191Z,0.00
2022-08-26T03:43:09.487Z,0.00
2022-08-26T03:44:08.224Z,0.00
2022-08-26T03:45:08.118Z,0.00
2022-08-26T03:46:08.191Z,0.00
2022-08-26T03:47:08.083Z,0.00
2022-08-26T03:48:08.099Z,0.00
2022-08-26T03:49:08.042Z,0.00
2022-08-26T03:50:08.098Z,0.00
2022-08-26T03:51:08.045Z,0.00
2022-08-26T03:52:08.029Z,0.00
2022-08-26T03:53:13.233Z,0.00
2022-08-26T03:54:08.307Z,0.00
2022-08-26T03:55:07.964Z,0.00
2022-08-26T03:56:07.998Z,0.00
2022-08-26T03:57:07.956Z,0.00
2022-08-26T03:58:07.944Z,0.00
2022-08-26T03:59:07.929Z,0.00
2022-08-26T04:00:07.912Z,0.00
2022-08-26T04:01:07.883Z,0.00
2022-08-26T04:02:08.611Z,0.00
2022-08-26T04:03:09.947Z,1.00
2022-08-26T04:04:07.841Z,1.00
2022-08-26T04:05:07.782Z,1.00
2022-08-26T04:06:07.779Z,1.00
2022-08-26T04:07:07.756Z,1.00
2022-08-26T04:08:07.803Z,2.00
2022-08-26T04:09:07.768Z,2.00
2022-08-26T04:10:07.724Z,2.00
2022-08-26T04:11:07.713Z,3.00
2022-08-26T04:12:07.704Z,2.00
2022-08-26T04:13:07.842Z,2.00
2022-08-26T04:14:07.743Z,3.00
2022-08-26T04:15:07.667Z,2.00
2022-08-26T04:16:07.662Z,5.00
2022-08-26T04:17:07.634Z,5.00
2022-08-26T04:18:07.622Z,6.00
2022-08-26T04:19:07.699Z,6.00
2022-08-26T04:20:07.668Z,14.00
2022-08-26T04:21:08.000Z,7.00
2022-08-26T04:22:07.563Z,10.00
2022-08-26T04:23:07.711Z,6.00
2022-08-26T04:24:11.381Z,8.00
2022-08-26T04:25:07.506Z,10.00
2022-08-26T04:26:07.624Z,16.00
2022-08-26T04:27:08.205Z,22.00
2022-08-26T04:28:07.486Z,23.00
2022-08-26T04:29:07.462Z,30.00
2022-08-26T04:30:07.477Z,41.00
2022-08-26T04:31:07.515Z,49.00
2022-08-26T04:32:07.500Z,57.00
2022-08-26T04:33:13.001Z,61.00
2022-08-26T04:34:07.407Z,62.00
2022-08-26T04:35:07.377Z,71.00
2022-08-26T04:36:07.448Z,85.00
2022-08-26T04:37:07.377Z,106.00
2022-08-26T04:38:07.391Z,125.00
2022-08-26T04:39:07.342Z,137.00
2022-08-26T04:40:07.342Z,149.00
2022-08-26T04:41:07.300Z,158.00
2022-08-26T04:42:07.303Z,178.00
2022-08-26T04:43:07.388Z,193.00
2022-08-26T04:44:07.321Z,214.00
2022-08-26T04:45:09.995Z,235.00
2022-08-26T04:46:07.271Z,251.00
2022-08-26T04:47:07.239Z,270.00
2022-08-26T04:48:07.245Z,286.00
2022-08-26T04:49:07.199Z,309.00
2022-08-26T04:50:07.489Z,330.00
2022-08-26T04:51:07.184Z,355.00
2022-08-26T04:52:07.164Z,382.00
2022-08-26T04:53:07.315Z,404.00
2022-08-26T04:54:07.255Z,422.00
2022-08-26T04:55:08.442Z,438.00
2022-08-26T04:56:07.144Z,476.00
2022-08-26T04:57:07.101Z,521.00
2022-08-26T04:58:07.079Z,561.00
2022-08-26T04:59:07.271Z,595.00
2022-08-26T05:00:07.066Z,630.00
2022-08-26T05:01:07.049Z,663.00
2022-08-26T05:02:07.335Z,691.00
2022-08-26T05:03:07.208Z,730.00
2022-08-26T05:04:08.208Z,772.00
2022-08-26T05:05:07.010Z,811.00
2022-08-26T05:06:06.981Z,847.00
2022-08-26T05:07:06.963Z,883.00
2022-08-26T05:08:06.988Z,914.00
2022-08-26T05:09:06.943Z,949.00
2022-08-26T05:10:08.739Z,987.00
2022-08-26T05:11:06.929Z,1006.00
2022-08-26T05:12:06.931Z,1032.00
2022-08-26T05:13:11.154Z,1065.00
2022-08-26T05:14:06.923Z,1095.00
2022-08-26T05:15:06.871Z,1131.00
2022-08-26T05:16:06.893Z,1152.00
2022-08-26T05:17:06.854Z,1172.00
2022-08-26T05:18:06.854Z,1200.00
2022-08-26T05:19:06.803Z,1231.00
2022-08-26T05:20:06.832Z,1257.00
2022-08-26T05:21:06.783Z,1286.00
2022-08-26T05:22:06.778Z,1316.00
2022-08-26T05:23:06.918Z,1343.00
2022-08-26T05:24:06.740Z,1365.00
2022-08-26T05:25:06.712Z,1389.00
2022-08-26T05:26:06.749Z,1426.00
2022-08-26T05:27:11.451Z,1453.00
2022-08-26T05:28:06.687Z,1479.00
2022-08-26T05:29:06.657Z,1506.00
2022-08-26T05:30:06.664Z,1524.00
2022-08-26T05:31:06.691Z,1544.00
2022-08-26T05:32:06.671Z,1561.00
2022-08-26T05:33:06.619Z,1588.00
2022-08-26T05:34:06.990Z,1599.00
2022-08-26T05:35:08.883Z,1615.00
2022-08-26T05:36:06.586Z,1644.00
2022-08-26T05:37:06.559Z,1682.00
2022-08-26T05:38:11.804Z,1699.00
2022-08-26T05:39:06.527Z,1702.00
2022-08-26T05:40:06.583Z,1736.00
2022-08-26T05:41:06.503Z,1779.00
2022-08-26T05:42:06.497Z,1777.00
2022-08-26T05:43:06.477Z,1792.00
2022-08-26T05:44:06.540Z,1811.00
2022-08-26T05:45:06.459Z,1827.00
2022-08-26T05:46:06.640Z,1864.00
2022-08-26T05:47:06.432Z,1931.00
2022-08-26T05:48:06.435Z,1974.00
2022-08-26T05:49:06.414Z,1924.00
2022-08-26T05:50:06.427Z,1975.00
2022-08-26T05:51:06.390Z,1982.00
2022-08-26T05:52:06.377Z,2012.00
2022-08-26T05:53:06.397Z,2033.00
2022-08-26T05:54:06.363Z,2073.00
2022-08-26T05:55:06.329Z,2115.00
2022-08-26T05:56:06.391Z,2161.00
2022-08-26T05:57:06.293Z,2185.00
2022-08-26T05:58:06.303Z,2212.00
2022-08-26T05:59:06.258Z,2250.00
2022-08-26T06:00:06.268Z,2294.00
2022-08-26T06:01:06.253Z,2343.00
2022-08-26T06:02:06.316Z,2375.00
2022-08-26T06:03:06.286Z,2421.00
2022-08-26T06:04:06.217Z,2449.00
2022-08-26T06:05:06.183Z,2506.00
2022-08-26T06:06:06.184Z,2593.00
2022-08-26T06:07:06.179Z,2682.00
2022-08-26T06:08:06.188Z,2528.00
2022-08-26T06:09:06.123Z,2670.00
2022-08-26T06:10:31.049Z,2655.00
2022-08-26T06:11:06.113Z,2767.00
2022-08-26T06:12:06.103Z,2769.00
2022-08-26T06:13:11.872Z,2750.00
2022-08-26T06:14:06.117Z,2731.00
2022-08-26T06:15:06.046Z,2803.00
2022-08-26T06:16:06.063Z,2804.00
2022-08-26T06:17:06.032Z,2837.00
2022-08-26T06:18:06.026Z,2954.00
2022-08-26T06:19:10.979Z,3047.00
2022-08-26T06:20:06.034Z,3113.00
2022-08-26T06:21:05.969Z,3261.00
2022-08-26T06:22:05.967Z,3801.00
2022-08-26T06:23:05.944Z,3419.00
2022-08-26T06:24:05.941Z,3312.00
2022-08-26T06:25:05.924Z,2728.00
2022-08-26T06:26:05.949Z,3369.00
2022-08-26T06:27:05.890Z,3455.00
2022-08-26T06:28:05.889Z,3485.00
2022-08-26T06:29:05.863Z,3513.00
2022-08-26T06:30:05.865Z,3528.00
2022-08-26T06:31:05.944Z,3529.00
2022-08-26T06:32:05.880Z,3523.00
2022-08-26T06:33:05.818Z,3528.00
2022-08-26T06:34:10.389Z,3544.00
2022-08-26T06:35:05.788Z,3552.00
2022-08-26T06:36:05.943Z,3571.00
2022-08-26T06:37:05.803Z,3581.00
2022-08-26T06:38:05.793Z,3602.00
2022-08-26T06:39:05.743Z,3594.00
2022-08-26T06:40:05.782Z,3608.00
2022-08-26T06:41:05.713Z,3592.00
2022-08-26T06:42:06.121Z,3606.00
2022-08-26T06:43:05.688Z,3626.00
2022-08-26T06:44:05.758Z,3646.00
2022-08-26T06:45:05.669Z,3660.00
2022-08-26T06:46:05.747Z,3628.00
2022-08-26T06:47:05.638Z,3678.00
2022-08-26T06:48:05.615Z,3577.00
2022-08-26T06:49:05.614Z,3618.00
2022-08-26T06:50:05.643Z,3613.00
2022-08-26T06:51:05.615Z,3621.00
2022-08-26T06:52:05.568Z,3646.00
2022-08-26T06:53:05.587Z,3649.00
2022-08-26T06:54:05.549Z,3653.00
2022-08-26T06:55:05.543Z,3691.00
2022-08-26T06:56:05.602Z,3704.00
2022-08-26T06:57:05.515Z,3733.00
2022-08-26T06:58:05.483Z,3749.00
2022-08-26T06:59:07.159Z,3768.00
2022-08-26T07:00:05.467Z,3765.00
2022-08-26T07:01:11.193Z,3775.00
2022-08-26T07:02:05.521Z,3830.00
2022-08-26T07:03:05.533Z,3827.00
2022-08-26T07:05:00.477Z,3929.00
2022-08-26T07:06:01.432Z,3912.00
2022-08-26T07:07:01.428Z,3885.00
2022-08-26T07:08:01.431Z,3975.00
2022-08-26T07:09:01.400Z,3943.00
2022-08-26T07:10:01.593Z,4034.00
2022-08-26T07:11:01.374Z,3992.00
2022-08-26T07:12:01.420Z,3975.00
2022-08-26T07:13:01.364Z,3986.00
2022-08-26T07:14:01.410Z,4016.00
2022-08-26T07:15:01.339Z,4004.00
2022-08-26T07:16:02.949Z,3970.00
2022-08-26T07:17:01.305Z,3994.00
2022-08-26T07:18:01.271Z,3989.00
2022-08-26T07:19:01.291Z,3980.00
2022-08-26T07:20:01.300Z,3998.00
2022-08-26T07:21:01.260Z,4006.00
2022-08-26T07:22:01.227Z,4022.00
2022-08-26T07:23:01.472Z,4022.00
2022-08-26T07:24:01.700Z,4293.00
2022-08-26T07:25:01.347Z,4522.00
2022-08-26T07:26:01.223Z,4045.00
2022-08-26T07:27:01.171Z,4231.00
2022-08-26T07:28:01.174Z,4478.00
2022-08-26T07:29:01.145Z,4106.00
2022-08-26T07:30:01.134Z,3262.00
2022-08-26T07:31:01.235Z,4235.00
2022-08-26T07:32:01.123Z,4281.00
2022-08-26T07:33:01.094Z,4282.00
2022-08-26T07:34:01.054Z,4314.00
2022-08-26T07:35:01.093Z,4312.00
2022-08-26T07:36:01.030Z,4323.00
2022-08-26T07:37:01.069Z,4366.00
2022-08-26T07:38:01.078Z,4375.00
2022-08-26T07:39:01.013Z,4375.00
2022-08-26T07:40:01.014Z,4435.00
2022-08-26T07:41:01.077Z,4520.00
2022-08-26T07:42:00.952Z,4538.00
2022-08-26T07:43:01.032Z,4562.00
2022-08-26T07:44:01.047Z,4607.00
2022-08-26T07:45:00.925Z,4611.00
2022-08-26T07:46:00.900Z,4628.00
2022-08-26T07:47:00.904Z,4687.00
2022-08-26T07:48:00.872Z,4826.00
2022-08-26T07:49:00.961Z,4637.00
2022-08-26T07:50:00.896Z,4876.00
2022-08-26T07:51:00.897Z,4841.00
2022-08-26T07:52:00.996Z,4819.00
2022-08-26T07:53:00.827Z,4968.00
2022-08-26T07:54:00.808Z,4866.00
2022-08-26T07:55:00.800Z,5029.00
2022-08-26T07:56:00.830Z,5013.00
2022-08-26T07:57:00.785Z,5064.00
2022-08-26T07:58:00.758Z,5126.00
2022-08-26T07:59:00.750Z,5140.00
2022-08-26T08:00:00.740Z,5215.00
2022-08-26T08:01:00.810Z,5412.00
2022-08-26T08:02:00.828Z,5455.00
2022-08-26T08:03:00.726Z,5418.00
2022-08-26T08:04:00.669Z,5503.00
2022-08-26T08:05:00.807Z,5625.00
2022-08-26T08:06:00.689Z,5705.00
2022-08-26T08:07:00.645Z,5646.00
2022-08-26T08:08:00.859Z,5914.00
2022-08-26T08:09:00.629Z,5987.00
2022-08-26T08:10:00.601Z,6300.00
2022-08-26T08:11:00.592Z,6788.00
2022-08-26T08:12:00.555Z,5694.00
2022-08-26T08:13:00.589Z,7414.00
2022-08-26T08:14:00.566Z,6706.00
2022-08-26T08:15:00.556Z,6768.00
2022-08-26T08:16:00.522Z,6184.00
2022-08-26T08:17:00.657Z,5311.00
2022-08-26T08:18:01.012Z,7015.00
2022-08-26T08:19:01.156Z,8160.00
2022-08-26T08:20:05.567Z,8035.00
2022-08-26T08:21:21.133Z,6781.00
2022-08-26T08:22:00.466Z,6873.00
2022-08-26T08:23:00.477Z,6231.00
2022-08-26T08:24:00.424Z,6323.00
2022-08-26T08:25:00.436Z,8632.00
2022-08-26T08:26:00.440Z,5975.00
2022-08-26T08:27:00.404Z,8478.00
2022-08-26T08:28:00.372Z,7626.00
2022-08-26T08:29:00.371Z,6532.00
2022-08-26T08:30:00.340Z,7164.00
2022-08-26T08:31:00.467Z,7242.00
2022-08-26T08:32:00.426Z,7546.00
2022-08-26T08:33:00.337Z,9264.00
2022-08-26T08:34:00.275Z,6181.00
2022-08-26T08:35:00.308Z,8004.00
2022-08-26T08:36:00.260Z,7918.00
2022-08-26T08:37:00.272Z,9508.00
2022-08-26T08:38:00.255Z,7782.00
2022-08-26T08:39:00.231Z,7455.00
2022-08-26T08:40:00.324Z,8546.00
2022-08-26T08:41:00.207Z,8000.00
2022-08-26T08:42:00.181Z,7914.00
2022-08-26T08:43:00.232Z,7859.00
2022-08-26T08:44:00.201Z,7750.00
2022-08-26T08:45:00.159Z,7537.00
2022-08-26T08:46:00.156Z,7561.00
2022-08-26T08:47:00.138Z,7532.00
2022-08-26T08:48:00.109Z,7344.00
2022-08-26T08:49:00.118Z,7377.00
2022-08-26T08:50:00.194Z,5643.00
2022-08-26T08:51:00.099Z,8828.00
2022-08-26T08:52:00.062Z,6996.00
2022-08-26T08:53:00.062Z,7887.00
2022-08-26T08:54:00.028Z,8839.00
2022-08-26T08:55:00.034Z,7443.00
2022-08-26T08:56:00.038Z,7069.00
2022-08-26T08:57:00.011Z,6802.00
2022-08-26T08:58:02.423Z,8360.00
2022-08-26T08:58:59.999Z,5827.00
2022-08-26T08:59:59.946Z,8424.00
2022-08-26T09:01:00.023Z,7013.00
2022-08-26T09:02:00.053Z,7070.00
2022-08-26T09:02:59.946Z,7477.00
2022-08-26T09:03:59.917Z,7846.00
2022-08-26T09:04:59.924Z,7398.00
2022-08-26T09:05:59.869Z,6173.00
2022-08-26T09:06:59.884Z,7004.00
2022-08-26T09:07:59.916Z,7553.00
2022-08-26T09:08:59.852Z,7687.00
2022-08-26T09:09:59.820Z,7856.00
2022-08-26T09:10:59.851Z,7457.00
2022-08-26T09:11:59.794Z,7250.00
2022-08-26T09:12:59.805Z,7475.00
2022-08-26T09:14:00.356Z,7829.00
2022-08-26T09:14:59.809Z,7658.00
2022-08-26T09:15:59.766Z,7683.00
2022-08-26T09:16:59.812Z,7771.00
2022-08-26T09:17:59.744Z,7682.00
2022-08-26T09:18:59.788Z,7402.00
2022-08-26T09:19:59.728Z,7768.00
2022-08-26T09:20:59.724Z,7817.00
2022-08-26T09:21:59.674Z,8002.00
2022-08-26T09:22:59.726Z,7660.00
2022-08-26T09:23:59.645Z,8173.00
2022-08-26T09:24:59.672Z,7760.00
2022-08-26T09:25:59.693Z,8425.00
2022-08-26T09:26:59.622Z,8999.00
2022-08-26T09:27:59.622Z,8750.00
2022-08-26T09:28:59.626Z,7046.00
2022-08-26T09:29:59.606Z,8951.00
2022-08-26T09:30:59.662Z,8585.00
2022-08-26T09:31:59.617Z,7702.00
2022-08-26T09:32:59.550Z,7684.00
2022-08-26T09:33:59.532Z,8365.00
2022-08-26T09:34:59.547Z,8630.00
2022-08-26T09:35:59.494Z,9029.00
2022-08-26T09:36:59.529Z,8243.00
2022-08-26T09:37:59.534Z,8236.00
2022-08-26T09:38:59.493Z,8151.00
2022-08-26T09:39:59.477Z,8155.00
2022-08-26T09:40:59.693Z,7772.00
2022-08-26T09:41:59.442Z,8004.00
2022-08-26T09:42:59.440Z,9837.00
2022-08-26T09:43:59.435Z,8771.00
2022-08-26T09:44:59.483Z,8726.00
2022-08-26T09:45:59.873Z,8238.00
2022-08-26T09:46:59.384Z,7712.00
2022-08-26T09:48:01.386Z,9848.00
2022-08-26T09:48:59.349Z,8612.00
2022-08-26T09:49:59.370Z,9319.00
2022-08-26T09:50:59.328Z,8631.00
2022-08-26T09:51:59.293Z,9449.00
2022-08-26T09:52:59.312Z,9017.00
2022-08-26T09:53:59.340Z,9439.00
2022-08-26T09:54:59.297Z,9262.00
2022-08-26T09:55:59.287Z,9457.00
2022-08-26T09:56:59.264Z,9186.00
2022-08-26T09:58:03.608Z,8677.00
2022-08-26T09:58:59.227Z,9260.00
2022-08-26T09:59:59.193Z,9098.00
2022-08-26T10:00:59.404Z,8772.00
2022-08-26T10:01:59.289Z,8784.00
2022-08-26T10:02:59.167Z,8682.00
2022-08-26T10:03:59.176Z,9190.00
2022-08-26T10:04:59.178Z,8593.00
2022-08-26T10:05:59.144Z,9326.00
2022-08-26T10:06:59.143Z,9318.00
2022-08-26T10:07:59.603Z,9482.00
2022-08-26T10:08:59.125Z,9418.00
2022-08-26T10:09:59.066Z,9428.00
2022-08-26T10:10:59.087Z,9602.00
2022-08-26T10:11:59.056Z,9663.00
2022-08-26T10:12:59.085Z,9200.00
2022-08-26T10:13:59.071Z,9299.00
2022-08-26T10:14:59.048Z,9086.00
2022-08-26T10:15:58.988Z,8865.00
2022-08-26T10:16:59.041Z,8941.00
2022-08-26T10:17:58.992Z,8783.00
2022-08-26T10:19:00.293Z,8811.00
2022-08-26T10:19:59.029Z,9046.00
2022-08-26T10:20:58.982Z,9184.00
2022-08-26T10:21:58.909Z,9256.00
2022-08-26T10:22:58.927Z,9204.00
2022-08-26T10:23:58.896Z,9534.00
2022-08-26T10:24:58.920Z,9279.00
2022-08-26T10:25:59.321Z,9163.00
2022-08-26T10:26:58.904Z,9356.00
2022-08-26T10:27:58.878Z,9607.00
2022-08-26T10:28:58.841Z,9413.00
2022-08-26T10:29:58.810Z,9313.00
2022-08-26T10:30:58.835Z,9358.00
2022-08-26T10:32:03.635Z,9322.00
2022-08-26T10:32:58.820Z,9587.00
2022-08-26T10:34:00.320Z,9560.00
2022-08-26T10:34:58.784Z,9494.00
2022-08-26T10:35:58.746Z,9586.00
2022-08-26T10:37:13.761Z,9702.00
2022-08-26T10:37:58.766Z,9494.00
2022-08-26T10:38:58.728Z,9507.00
2022-08-26T10:39:59.294Z,9774.00
2022-08-26T10:40:58.690Z,9822.00
2022-08-26T10:41:58.669Z,9851.00
2022-08-26T10:42:58.685Z,9541.00
2022-08-26T10:43:58.716Z,10056.00
2022-08-26T10:44:58.883Z,9803.00
2022-08-26T10:45:58.657Z,9940.00
2022-08-26T10:46:58.621Z,9963.00
2022-08-26T10:47:58.590Z,9835.00
2022-08-26T10:48:59.997Z,9529.00
2022-08-26T10:50:02.877Z,9701.00
2022-08-26T10:50:58.626Z,9397.00
2022-08-26T10:51:58.573Z,9776.00
2022-08-26T10:52:58.520Z,9785.00
2022-08-26T10:53:58.538Z,10070.00
2022-08-26T10:54:58.501Z,9843.00
2022-08-26T10:55:58.525Z,9875.00
2022-08-26T10:56:58.471Z,9785.00
2022-08-26T10:57:58.518Z,9788.00
2022-08-26T10:58:58.446Z,9609.00
2022-08-26T10:59:58.457Z,9418.00
2022-08-26T11:00:58.538Z,9681.00
2022-08-26T11:01:58.469Z,9938.00
2022-08-26T11:02:58.488Z,9470.00
2022-08-26T11:03:58.496Z,9786.00
2022-08-26T11:04:58.387Z,9418.00
2022-08-26T11:05:58.390Z,9409.00
2022-08-26T11:06:58.372Z,9544.00
2022-08-26T11:07:58.469Z,9334.00
2022-08-26T11:08:58.319Z,9345.00
2022-08-26T11:09:58.333Z,9367.00
2022-08-26T11:10:59.035Z,9401.00
2022-08-26T11:11:58.334Z,9201.00
2022-08-26T11:12:58.297Z,9211.00
2022-08-26T11:13:58.323Z,9017.00
2022-08-26T11:14:59.190Z,8910.00
2022-08-26T11:15:58.285Z,8841.00
2022-08-26T11:16:58.290Z,8940.00
2022-08-26T11:17:58.217Z,8894.00
2022-08-26T11:18:58.219Z,8686.00
2022-08-26T11:20:01.936Z,8938.00
2022-08-26T11:20:58.181Z,8757.00
2022-08-26T11:21:58.176Z,8807.00
2022-08-26T11:22:59.511Z,8724.00
2022-08-26T11:23:58.184Z,9136.00
2022-08-26T11:24:58.134Z,8592.00
2022-08-26T11:25:58.205Z,9364.00
2022-08-26T11:26:58.119Z,9104.00
2022-08-26T11:27:58.112Z,9104.00
2022-08-26T11:28:58.071Z,9407.00
2022-08-26T11:29:58.068Z,9278.00
2022-08-26T11:30:58.490Z,8955.00
2022-08-26T11:31:58.269Z,9250.00
2022-08-26T11:32:58.030Z,9169.00
2022-08-26T11:33:58.055Z,9243.00
2022-08-26T11:34:58.354Z,9315.00
2022-08-26T11:35:58.022Z,9378.00
2022-08-26T11:36:57.970Z,9184.00
2022-08-26T11:37:57.992Z,9122.00
2022-08-26T11:38:57.960Z,9606.00
2022-08-26T11:39:58.017Z,9493.00
2022-08-26T11:40:57.911Z,9409.00
2022-08-26T11:41:58.000Z,9575.00
2022-08-26T11:42:57.899Z,9756.00
2022-08-26T11:43:57.907Z,9727.00
2022-08-26T11:44:58.259Z,10561.00
2022-08-26T11:45:57.924Z,10045.00
2022-08-26T11:46:57.844Z,10071.00
2022-08-26T11:47:57.862Z,10315.00
2022-08-26T11:48:57.848Z,10870.00
2022-08-26T11:49:57.849Z,10463.00
2022-08-26T11:50:57.778Z,9959.00
2022-08-26T11:51:57.856Z,10618.00
2022-08-26T11:52:57.798Z,10658.00
2022-08-26T11:53:57.756Z,10205.00
2022-08-26T11:54:57.777Z,10267.00
2022-08-26T11:55:57.764Z,10050.00
2022-08-26T11:56:57.704Z,10538.00
2022-08-26T11:57:57.743Z,10706.00
2022-08-26T11:58:57.752Z,10332.00
2022-08-26T11:59:57.702Z,10368.00
2022-08-26T12:00:57.667Z,10317.00
2022-08-26T12:01:57.661Z,10080.00
2022-08-26T12:02:57.648Z,9989.00
2022-08-26T12:03:58.483Z,10623.00
2022-08-26T12:04:57.608Z,10112.00
2022-08-26T12:05:57.623Z,10144.00
2022-08-26T12:06:57.610Z,9943.00
2022-08-26T12:07:57.600Z,9539.00
2022-08-26T12:08:57.566Z,9746.00
2022-08-26T12:09:57.582Z,9416.00
2022-08-26T12:10:57.530Z,10435.00
2022-08-26T12:11:58.014Z,9387.00
2022-08-26T12:12:57.515Z,10107.00
2022-08-26T12:13:57.506Z,9490.00
2022-08-26T12:14:57.521Z,9688.00
2022-08-26T12:15:57.483Z,9401.00
2022-08-26T12:16:57.475Z,9510.00
2022-08-26T12:17:57.452Z,9406.00
2022-08-26T12:18:57.439Z,9439.00
2022-08-26T12:19:57.448Z,9315.00
2022-08-26T12:20:57.486Z,9315.00
2022-08-26T12:21:57.415Z,9096.00
2022-08-26T12:22:57.397Z,9264.00
2022-08-26T12:23:57.389Z,9075.00
2022-08-26T12:24:57.404Z,9438.00
2022-08-26T12:25:57.376Z,8871.00
2022-08-26T12:26:57.322Z,9554.00
2022-08-26T12:27:57.326Z,9215.00
2022-08-26T12:28:57.598Z,8897.00
2022-08-26T12:29:57.310Z,10190.00
2022-08-26T12:30:57.309Z,9275.00